Street, Maryland
Current Conditions -  °F | °C
As of 9:45 PM on Tuesday 21 Oct 2014 (Local Time) from KMTN Reporting Station
Light Rain Light Rain  
Wind Chill: 57°   Ceiling: 6000
Heat Index: 57°   Visibility: 7mi
Dew Point: 55°   Wind: 9mph
Humidity: 94%   Direction: 250°WSW
Pressure: 29.91"   Gusts: NA
Location:  39.67°N, 76.38°W
Report Text: KMTN 220145Z 25008KT 7SM -RA SCT010 SCT013 BKN060 14/13 A2991 RMK LAST
Loading
Personal Weather Stations






























Interactive Weather Map
Tropical Storm Tracking
New forecast layout! Learn more

10-Day Weather Forecast

Advertisements
Track Severe Weather on mobile